Time;durP1;ratioP1;P1;durP2;ratioP2;P2;SDS_P1;SDS_P2;PMS_P1;PMS_P2;Temp;Humidity;BMP_temperature;BMP_pressure;BME280_temperature;BME280_humidity;BME280_pressure;Samples;Min_cycle;Max_cycle;Signal;HPM_P1;HPM_P2
2023/05/19 00:02:19;;;;;;;;;;;11.00;99.90;;;;;;5077389;28;19924;-80
2023/05/19 00:04:48;;;;;;;;;;;10.90;99.90;;;;;;5078057;28;19924;-79
2023/05/19 00:07:21;;;;;;;;;;;10.90;99.90;;;;;;5079090;28;19977;-79
2023/05/19 00:09:48;;;;;;;;;;;10.90;99.90;;;;;;5058515;28;19925;-79
2023/05/19 00:12:15;;;;;;;;;;;10.90;99.90;;;;;;5051082;28;19947;-80
2023/05/19 00:14:42;;;;;;;;;;;10.90;99.90;;;;;;5077867;28;19928;-80
2023/05/19 00:17:09;;;;;;;;;;;11.00;99.90;;;;;;5076537;28;19939;-79
2023/05/19 00:19:36;;;;;;;;;;;10.90;99.90;;;;;;5077653;28;20383;-79
2023/05/19 00:22:04;;;;;;;;;;;10.90;99.90;;;;;;5059581;28;19928;-79
2023/05/19 00:24:30;;;;;;;;;;;10.90;99.90;;;;;;5075662;28;19924;-79
2023/05/19 00:26:57;;;;;;;;;;;10.90;99.90;;;;;;5057691;28;19926;-79
2023/05/19 00:29:24;;;;;;;;;;;10.90;99.90;;;;;;5057563;28;19925;-80
2023/05/19 00:31:51;;;;;;;;;;;10.80;99.90;;;;;;5077224;28;19932;-80
2023/05/19 00:34:18;;;;;;;;;;;10.80;99.90;;;;;;5058393;28;19928;-80
2023/05/19 00:36:44;;;;;;;;;;;10.80;99.90;;;;;;5078601;28;19963;-80
2023/05/19 00:39:11;;;;;;;;;;;10.80;99.90;;;;;;5059098;28;19928;-80
2023/05/19 00:41:38;;;;;;;;;;;10.80;99.90;;;;;;5076152;28;20755;-80
2023/05/19 00:44:05;;;;;;;;;;;10.80;99.90;;;;;;5062173;28;19945;-79
2023/05/19 00:46:32;;;;;;;;;;;10.80;99.90;;;;;;5079522;28;19939;-81
2023/05/19 00:48:59;;;;;;;;;;;10.80;99.90;;;;;;5080034;28;20237;-82
2023/05/19 00:51:26;;;;;;;;;;;10.80;99.90;;;;;;5061840;28;20311;-79
2023/05/19 00:53:53;;;;;;;;;;;10.70;99.90;;;;;;5078966;28;19924;-80
2023/05/19 00:56:20;;;;;;;;;;;10.70;99.90;;;;;;5079336;28;19924;-80
2023/05/19 00:58:47;;;;;;;;;;;10.60;99.90;;;;;;5080595;28;20677;-80
2023/05/19 01:01:15;;;;;;;;;;;10.60;99.90;;;;;;5080217;28;20582;-82
2023/05/19 01:03:43;;;;;;;;;;;10.60;99.90;;;;;;5077644;28;20022;-80
2023/05/19 01:06:10;;;;;;;;;;;10.60;99.90;;;;;;5074209;28;20393;-80
2023/05/19 01:08:37;;;;;;;;;;;10.60;99.90;;;;;;5076111;28;19928;-80
2023/05/19 01:11:05;;;;;;;;;;;10.60;99.90;;;;;;5058512;28;19955;-80
2023/05/19 01:13:32;;;;;;;;;;;10.50;99.90;;;;;;5067622;28;19945;-79
2023/05/19 01:16:00;;;;;;;;;;;10.50;99.90;;;;;;5079840;28;20533;-79
2023/05/19 01:18:32;;;;;;;;;;;10.40;99.90;;;;;;5080526;28;20047;-79
2023/05/19 01:21:09;;;;;;;;;;;10.40;99.90;;;;;;5067013;28;19932;-80
2023/05/19 01:23:41;;;;;;;;;;;10.40;99.90;;;;;;5075146;28;20396;-80
2023/05/19 01:26:11;;;;;;;;;;;10.40;99.90;;;;;;5076121;28;20375;-80
2023/05/19 01:28:49;;;;;;;;;;;10.40;99.90;;;;;;5080839;28;19927;-80
2023/05/19 01:31:16;;;;;;;;;;;10.30;99.90;;;;;;5080558;28;20069;-80
2023/05/19 01:33:43;;;;;;;;;;;10.30;99.90;;;;;;5083330;28;19971;-80
2023/05/19 01:36:09;;;;;;;;;;;10.30;99.90;;;;;;5063165;28;19987;-80
2023/05/19 01:38:37;;;;;;;;;;;10.30;99.90;;;;;;5083567;28;20297;-80
2023/05/19 01:41:03;;;;;;;;;;;10.30;99.90;;;;;;5083437;28;20049;-80
2023/05/19 01:43:30;;;;;;;;;;;10.30;99.90;;;;;;5081908;28;20034;-81
2023/05/19 01:45:57;;;;;;;;;;;10.30;99.90;;;;;;5080153;28;19928;-80
2023/05/19 01:48:24;;;;;;;;;;;10.30;99.90;;;;;;5069182;28;19928;-81
2023/05/19 01:50:51;;;;;;;;;;;10.30;99.90;;;;;;5066793;28;19985;-80
2023/05/19 01:53:18;;;;;;;;;;;10.30;99.90;;;;;;5083876;28;19932;-81
2023/05/19 01:55:46;;;;;;;;;;;10.30;99.90;;;;;;5084258;28;20519;-81
2023/05/19 01:58:19;;;;;;;;;;;10.30;99.90;;;;;;5070871;28;20030;-81
2023/05/19 02:00:50;;;;;;;;;;;10.40;99.90;;;;;;5086126;28;20010;-80
2023/05/19 02:03:43;;;;;;;;;;;10.30;99.90;;;;;;5084614;28;19982;-80
2023/05/19 02:06:19;;;;;;;;;;;10.30;99.90;;;;;;5058623;28;19931;-80
2023/05/19 02:08:48;;;;;;;;;;;10.40;99.90;;;;;;5085350;28;19975;-80
2023/05/19 02:11:20;;;;;;;;;;;10.30;99.90;;;;;;5083198;28;20025;-80
2023/05/19 02:13:48;;;;;;;;;;;10.30;99.90;;;;;;5097113;28;20124;-80
2023/05/19 02:16:15;;;;;;;;;;;10.30;99.90;;;;;;5084268;28;19924;-80
2023/05/19 02:18:45;;;;;;;;;;;10.20;99.90;;;;;;5085266;28;20682;-80
2023/05/19 02:21:12;;;;;;;;;;;10.20;99.90;;;;;;5084404;28;19954;-80
2023/05/19 02:23:40;;;;;;;;;;;10.20;99.90;;;;;;5083399;28;19924;-81
2023/05/19 02:26:07;;;;;;;;;;;10.20;99.90;;;;;;5062964;28;19924;-80
2023/05/19 02:28:35;;;;;;;;;;;10.10;99.90;;;;;;5083831;28;19924;-81
2023/05/19 02:31:04;;;;;;;;;;;10.10;99.90;;;;;;5084154;28;19940;-81
2023/05/19 02:33:31;;;;;;;;;;;10.10;99.90;;;;;;5084287;28;20008;-80
2023/05/19 02:35:58;;;;;;;;;;;10.10;99.90;;;;;;5066643;28;20004;-80
2023/05/19 02:38:25;;;;;;;;;;;10.10;99.90;;;;;;5084526;28;19924;-81
2023/05/19 02:40:52;;;;;;;;;;;10.10;99.90;;;;;;5083183;28;19924;-80
2023/05/19 02:43:19;;;;;;;;;;;10.10;99.90;;;;;;5085534;28;20314;-80
2023/05/19 02:45:45;;;;;;;;;;;10.10;99.90;;;;;;5083805;28;20507;-81
2023/05/19 02:48:12;;;;;;;;;;;10.10;99.90;;;;;;5084959;28;20370;-81
2023/05/19 02:50:40;;;;;;;;;;;10.20;99.90;;;;;;5083601;28;19943;-80
2023/05/19 02:53:06;;;;;;;;;;;10.10;99.90;;;;;;5082464;28;19924;-82
2023/05/19 02:55:33;;;;;;;;;;;10.00;99.90;;;;;;5083242;28;19932;-82
2023/05/19 02:58:00;;;;;;;;;;;9.90;99.90;;;;;;5083455;28;19928;-82
2023/05/19 03:00:27;;;;;;;;;;;9.90;99.90;;;;;;5083220;28;19931;-82
2023/05/19 03:02:54;;;;;;;;;;;9.80;99.90;;;;;;5062719;28;19929;-81
2023/05/19 03:05:21;;;;;;;;;;;9.70;99.90;;;;;;5064866;28;20072;-80
2023/05/19 03:07:48;;;;;;;;;;;9.70;99.90;;;;;;5082661;28;19928;-79
2023/05/19 03:10:15;;;;;;;;;;;9.60;99.90;;;;;;5081558;28;20556;-81
2023/05/19 03:12:42;;;;;;;;;;;9.60;99.90;;;;;;5065571;28;19927;-81
2023/05/19 03:15:11;;;;;;;;;;;9.60;99.90;;;;;;5065897;28;19928;-81
2023/05/19 03:17:39;;;;;;;;;;;9.60;99.90;;;;;;5083544;28;19931;-80
2023/05/19 03:20:09;;;;;;;;;;;9.70;99.90;;;;;;5078571;28;19932;-81
2023/05/19 03:22:36;;;;;;;;;;;9.70;99.90;;;;;;5084586;28;19978;-81
2023/05/19 03:25:03;;;;;;;;;;;9.80;99.90;;;;;;5081954;28;19924;-81
2023/05/19 03:27:30;;;;;;;;;;;9.80;99.90;;;;;;5084131;28;19955;-81
2023/05/19 03:29:57;;;;;;;;;;;9.70;99.90;;;;;;5082852;28;20027;-81
2023/05/19 03:32:24;;;;;;;;;;;9.70;99.90;;;;;;5081556;28;19931;-82
2023/05/19 03:34:51;;;;;;;;;;;9.60;99.90;;;;;;5065431;28;20116;-81
2023/05/19 03:37:18;;;;;;;;;;;9.60;99.90;;;;;;5064369;28;19936;-81
2023/05/19 03:39:45;;;;;;;;;;;9.60;99.90;;;;;;5081559;28;19932;-81
2023/05/19 03:42:11;;;;;;;;;;;9.50;99.90;;;;;;5082276;28;20015;-79
2023/05/19 03:44:39;;;;;;;;;;;9.50;99.90;;;;;;5066193;28;19932;-80
2023/05/19 03:47:06;;;;;;;;;;;9.50;99.90;;;;;;5082300;28;19927;-81
2023/05/19 03:49:33;;;;;;;;;;;9.60;99.90;;;;;;5082532;28;19932;-80
2023/05/19 03:52:02;;;;;;;;;;;9.60;99.90;;;;;;5062445;28;19989;-80
2023/05/19 03:54:28;;;;;;;;;;;9.50;99.90;;;;;;5078373;28;19928;-80
2023/05/19 03:56:55;;;;;;;;;;;9.50;99.90;;;;;;5063916;28;20017;-79
2023/05/19 03:59:23;;;;;;;;;;;9.50;99.90;;;;;;5063102;28;19935;-80
2023/05/19 04:01:50;;;;;;;;;;;9.50;99.90;;;;;;5084492;28;19928;-80
2023/05/19 04:04:17;;;;;;;;;;;9.40;99.90;;;;;;5064542;28;19936;-82
2023/05/19 04:06:44;;;;;;;;;;;9.40;99.90;;;;;;5081356;28;19924;-82
2023/05/19 04:09:12;;;;;;;;;;;9.40;99.90;;;;;;5082052;28;19963;-81
2023/05/19 04:11:39;;;;;;;;;;;9.40;99.90;;;;;;5082239;28;20291;-82
2023/05/19 04:14:06;;;;;;;;;;;9.40;99.90;;;;;;5073484;28;20025;-81
2023/05/19 04:16:32;;;;;;;;;;;9.40;99.90;;;;;;5083182;28;19932;-80
2023/05/19 04:18:59;;;;;;;;;;;9.40;99.90;;;;;;5062998;28;19981;-79
2023/05/19 04:21:26;;;;;;;;;;;9.40;99.90;;;;;;5082805;28;19924;-80
2023/05/19 04:23:53;;;;;;;;;;;9.40;99.90;;;;;;5081696;28;20736;-78
2023/05/19 04:26:21;;;;;;;;;;;9.50;99.90;;;;;;5081338;28;19985;-80
2023/05/19 04:28:48;;;;;;;;;;;9.50;99.90;;;;;;5076133;28;19928;-80
2023/05/19 04:31:14;;;;;;;;;;;9.60;99.90;;;;;;5062077;28;19924;-81
2023/05/19 04:33:42;;;;;;;;;;;9.50;99.90;;;;;;5075949;28;19924;-80
2023/05/19 04:36:10;;;;;;;;;;;9.60;99.90;;;;;;5063328;28;19940;-80
2023/05/19 04:38:38;;;;;;;;;;;9.60;99.90;;;;;;5076798;28;20075;-81
2023/05/19 04:41:09;;;;;;;;;;;9.70;99.90;;;;;;5047930;28;20015;-81
2023/05/19 04:43:40;;;;;;;;;;;9.80;99.90;;;;;;5051959;28;19925;-81
2023/05/19 04:46:08;;;;;;;;;;;9.80;99.90;;;;;;5063685;28;19924;-80
2023/05/19 04:48:39;;;;;;;;;;;9.80;99.90;;;;;;5083568;28;19954;-81
2023/05/19 04:51:06;;;;;;;;;;;9.90;99.90;;;;;;5081558;28;19924;-82
2023/05/19 04:53:33;;;;;;;;;;;10.00;99.90;;;;;;5082460;28;19924;-80
2023/05/19 04:56:01;;;;;;;;;;;10.10;99.90;;;;;;5054858;28;19929;-80
2023/05/19 04:58:28;;;;;;;;;;;10.20;99.90;;;;;;5072396;28;19928;-80
2023/05/19 05:00:54;;;;;;;;;;;10.30;99.90;;;;;;5078674;28;19932;-80
2023/05/19 05:03:21;;;;;;;;;;;10.30;99.90;;;;;;5075560;28;20371;-80
2023/05/19 05:05:48;;;;;;;;;;;10.40;99.90;;;;;;5080681;28;19930;-80
2023/05/19 05:08:20;;;;;;;;;;;10.40;99.90;;;;;;5060328;28;19975;-80
2023/05/19 05:10:49;;;;;;;;;;;10.50;99.90;;;;;;5080343;28;19973;-81
2023/05/19 05:13:16;;;;;;;;;;;10.60;99.90;;;;;;5082163;28;19928;-81
2023/05/19 05:15:43;;;;;;;;;;;10.70;99.90;;;;;;5083394;28;19997;-82
2023/05/19 05:18:10;;;;;;;;;;;10.70;99.90;;;;;;5061764;28;19925;-81
2023/05/19 05:20:37;;;;;;;;;;;10.80;99.90;;;;;;5081215;28;19939;-81
2023/05/19 05:23:04;;;;;;;;;;;10.90;99.90;;;;;;5054013;28;19932;-81
2023/05/19 05:25:31;;;;;;;;;;;11.00;99.90;;;;;;5061787;28;19928;-79
2023/05/19 05:28:03;;;;;;;;;;;11.00;99.90;;;;;;5077161;28;20013;-80
2023/05/19 05:30:32;;;;;;;;;;;11.10;99.90;;;;;;5058657;28;19950;-82
2023/05/19 05:32:58;;;;;;;;;;;11.10;99.90;;;;;;5070991;28;20020;-83
2023/05/19 05:35:26;;;;;;;;;;;11.10;99.90;;;;;;5067758;28;19928;-82
2023/05/19 05:37:53;;;;;;;;;;;11.10;99.90;;;;;;5080309;28;19981;-82
2023/05/19 05:40:20;;;;;;;;;;;11.20;99.90;;;;;;5065473;28;19934;-84
2023/05/19 05:42:48;;;;;;;;;;;11.20;99.90;;;;;;5064349;28;19928;-82
2023/05/19 05:45:16;;;;;;;;;;;11.30;99.90;;;;;;5061813;28;19971;-83
2023/05/19 05:47:43;;;;;;;;;;;11.30;99.90;;;;;;5081445;28;20069;-82
2023/05/19 05:50:11;;;;;;;;;;;11.30;99.90;;;;;;5077328;28;20459;-81
2023/05/19 05:52:38;;;;;;;;;;;11.40;99.90;;;;;;5075341;28;19932;-81
2023/05/19 05:55:05;;;;;;;;;;;11.40;99.90;;;;;;5056130;28;19937;-80
2023/05/19 05:57:35;;;;;;;;;;;11.50;99.90;;;;;;5075218;28;20390;-80
2023/05/19 06:00:04;;;;;;;;;;;11.60;99.90;;;;;;5058542;28;19935;-80
2023/05/19 06:02:32;;;;;;;;;;;11.60;99.90;;;;;;5077245;28;19924;-80
2023/05/19 06:04:59;;;;;;;;;;;11.70;99.90;;;;;;5076140;28;20502;-79
2023/05/19 06:07:26;;;;;;;;;;;11.60;99.90;;;;;;5077064;28;20379;-81
2023/05/19 06:09:52;;;;;;;;;;;11.70;99.90;;;;;;5055944;28;20356;-80
2023/05/19 06:12:19;;;;;;;;;;;11.80;99.90;;;;;;5059225;28;19927;-79
2023/05/19 06:14:46;;;;;;;;;;;11.90;99.90;;;;;;5075423;28;19928;-80
2023/05/19 06:17:13;;;;;;;;;;;11.90;99.90;;;;;;5078458;28;19928;-80
2023/05/19 06:19:39;;;;;;;;;;;12.00;99.90;;;;;;5059957;28;20016;-80
2023/05/19 06:22:06;;;;;;;;;;;12.00;99.90;;;;;;5070947;28;20236;-80
2023/05/19 06:24:33;;;;;;;;;;;12.00;99.90;;;;;;5076888;28;19927;-80
2023/05/19 06:27:00;;;;;;;;;;;12.00;99.90;;;;;;5058800;28;20738;-80
2023/05/19 06:29:27;;;;;;;;;;;12.10;99.90;;;;;;5057364;28;19982;-79
2023/05/19 06:31:54;;;;;;;;;;;12.10;99.90;;;;;;5077259;28;20596;-80
2023/05/19 06:34:20;;;;;;;;;;;12.10;99.90;;;;;;5056061;28;19935;-79
2023/05/19 06:36:48;;;;;;;;;;;12.10;99.90;;;;;;5058190;28;20011;-80
2023/05/19 06:39:14;;;;;;;;;;;12.20;99.90;;;;;;5058265;28;20597;-78
2023/05/19 06:41:41;;;;;;;;;;;12.40;99.90;;;;;;5059742;28;19928;-80
2023/05/19 06:44:08;;;;;;;;;;;12.40;99.90;;;;;;5055826;28;19929;-80
2023/05/19 06:46:35;;;;;;;;;;;12.50;99.90;;;;;;5056750;28;19990;-80
2023/05/19 06:49:02;;;;;;;;;;;12.50;99.90;;;;;;5043442;28;20063;-80
2023/05/19 06:51:30;;;;;;;;;;;12.50;99.90;;;;;;5076714;28;20039;-81
2023/05/19 06:53:57;;;;;;;;;;;12.60;99.90;;;;;;5076060;28;20592;-81
2023/05/19 06:56:24;;;;;;;;;;;12.70;99.90;;;;;;5074205;28;20026;-82
2023/05/19 06:58:52;;;;;;;;;;;12.70;99.90;;;;;;5056452;28;19944;-81
2023/05/19 07:01:20;;;;;;;;;;;12.80;99.90;;;;;;5076560;28;19941;-82
2023/05/19 07:03:47;;;;;;;;;;;12.80;99.90;;;;;;5076240;28;20503;-82
2023/05/19 07:06:14;;;;;;;;;;;12.90;99.90;;;;;;5072764;28;20519;-82
2023/05/19 07:08:40;;;;;;;;;;;13.00;99.90;;;;;;5039320;28;19947;-82
2023/05/19 07:11:08;;;;;;;;;;;13.00;99.90;;;;;;5045662;28;19932;-82
2023/05/19 07:13:35;;;;;;;;;;;13.00;99.90;;;;;;5070465;28;20000;-82
2023/05/19 07:16:02;;;;;;;;;;;13.10;99.90;;;;;;5047025;28;19939;-82
2023/05/19 07:18:30;;;;;;;;;;;13.20;99.90;;;;;;5040699;28;20001;-83
2023/05/19 07:20:57;;;;;;;;;;;13.20;99.90;;;;;;5055407;28;20391;-83
2023/05/19 07:23:25;;;;;;;;;;;13.20;99.90;;;;;;5057422;28;19938;-81
2023/05/19 07:25:55;;;;;;;;;;;13.30;99.90;;;;;;5075820;28;20099;-82
2023/05/19 07:28:23;;;;;;;;;;;13.30;99.90;;;;;;5071810;28;19924;-81
2023/05/19 07:30:50;;;;;;;;;;;13.30;99.90;;;;;;5076125;28;20434;-81
2023/05/19 07:33:17;;;;;;;;;;;13.20;99.90;;;;;;5072704;28;19928;-82
2023/05/19 07:35:45;;;;;;;;;;;13.40;99.90;;;;;;5059542;28;20023;-82
2023/05/19 07:38:12;;;;;;;;;;;13.40;99.90;;;;;;5076800;28;20393;-82
2023/05/19 07:40:38;;;;;;;;;;;13.50;99.90;;;;;;5074825;28;20335;-83
2023/05/19 07:43:06;;;;;;;;;;;13.50;99.90;;;;;;5058692;28;20446;-82
2023/05/19 07:45:32;;;;;;;;;;;13.60;99.90;;;;;;5070564;28;20033;-83
2023/05/19 07:47:59;;;;;;;;;;;13.60;99.90;;;;;;5075504;28;20058;-82
2023/05/19 07:50:26;;;;;;;;;;;13.70;99.90;;;;;;5076445;28;20010;-83
2023/05/19 07:52:54;;;;;;;;;;;13.90;99.90;;;;;;5075859;28;19971;-83
2023/05/19 07:55:22;;;;;;;;;;;14.10;99.90;;;;;;5058314;28;19980;-83
2023/05/19 07:57:49;;;;;;;;;;;14.10;99.90;;;;;;5075586;28;19932;-82
2023/05/19 08:00:16;;;;;;;;;;;14.20;99.90;;;;;;5092371;28;19936;-82
2023/05/19 08:02:43;;;;;;;;;;;14.20;99.90;;;;;;5055003;28;19936;-83
2023/05/19 08:05:10;;;;;;;;;;;14.20;99.90;;;;;;5074689;28;19975;-82
2023/05/19 08:07:37;;;;;;;;;;;14.20;99.90;;;;;;5058797;28;20274;-82
2023/05/19 08:10:04;;;;;;;;;;;14.20;99.90;;;;;;5051828;28;19924;-82
2023/05/19 08:12:32;;;;;;;;;;;14.30;99.90;;;;;;5067941;28;20004;-82
2023/05/19 08:14:58;;;;;;;;;;;14.40;99.90;;;;;;5072409;28;19973;-82
2023/05/19 08:17:27;;;;;;;;;;;14.50;99.90;;;;;;5076477;28;19940;-83
2023/05/19 08:19:54;;;;;;;;;;;14.70;99.90;;;;;;5074307;28;20564;-82
2023/05/19 08:22:22;;;;;;;;;;;14.90;99.90;;;;;;5076839;28;19928;-83
2023/05/19 08:24:50;;;;;;;;;;;15.00;99.90;;;;;;5064034;28;19932;-82
2023/05/19 08:27:17;;;;;;;;;;;15.10;99.90;;;;;;5069118;28;19935;-82
2023/05/19 08:29:44;;;;;;;;;;;15.30;99.90;;;;;;5053210;28;19927;-85
2023/05/19 08:32:11;;;;;;;;;;;15.30;99.90;;;;;;5059567;28;20003;-83
2023/05/19 08:34:41;;;;;;;;;;;15.40;99.90;;;;;;5058871;28;19987;-84
2023/05/19 08:37:08;;;;;;;;;;;15.40;99.90;;;;;;5066757;28;19928;-83
2023/05/19 08:39:36;;;;;;;;;;;15.50;99.90;;;;;;5072534;28;19928;-83
2023/05/19 08:42:03;;;;;;;;;;;15.50;99.90;;;;;;5060374;28;19939;-83
2023/05/19 08:44:30;;;;;;;;;;;15.50;99.90;;;;;;5066716;28;19928;-83
2023/05/19 08:46:57;;;;;;;;;;;15.40;99.90;;;;;;5093498;28;19928;-83
2023/05/19 08:49:27;;;;;;;;;;;15.40;99.90;;;;;;5071120;28;20434;-82
2023/05/19 08:52:12;;;;;;;;;;;15.40;99.90;;;;;;5080508;28;19928;-82
2023/05/19 08:54:49;;;;;;;;;;;15.30;99.90;;;;;;5075371;28;19932;-79
2023/05/19 08:57:16;;;;;;;;;;;15.10;99.90;;;;;;5075159;28;19928;-82
2023/05/19 08:59:43;;;;;;;;;;;14.90;99.90;;;;;;5074985;28;19934;-82
2023/05/19 09:02:10;;;;;;;;;;;14.70;99.90;;;;;;5062415;28;19928;-82
2023/05/19 09:04:37;;;;;;;;;;;14.70;99.90;;;;;;5077403;28;19935;-82
2023/05/19 09:07:04;;;;;;;;;;;14.70;99.90;;;;;;5062110;28;19967;-81
2023/05/19 09:09:31;;;;;;;;;;;14.70;99.90;;;;;;5073707;28;20031;-82
2023/05/19 09:11:58;;;;;;;;;;;14.80;99.90;;;;;;5071117;28;20020;-82
2023/05/19 09:14:25;;;;;;;;;;;14.70;99.90;;;;;;5075911;28;19924;-81
2023/05/19 09:16:52;;;;;;;;;;;14.70;99.90;;;;;;5057407;28;20009;-81
2023/05/19 09:19:20;;;;;;;;;;;14.70;99.90;;;;;;5073874;28;19932;-82
2023/05/19 09:21:49;;;;;;;;;;;14.80;99.90;;;;;;5077866;28;20438;-82
2023/05/19 09:24:16;;;;;;;;;;;14.90;99.90;;;;;;5056521;28;19964;-81
2023/05/19 09:26:43;;;;;;;;;;;15.00;99.90;;;;;;5063980;28;19928;-82
2023/05/19 09:29:14;;;;;;;;;;;15.00;99.90;;;;;;5080696;28;20405;-82
2023/05/19 09:31:48;;;;;;;;;;;15.10;99.90;;;;;;5061070;28;20419;-82
2023/05/19 09:34:15;;;;;;;;;;;15.00;99.90;;;;;;5079598;28;20452;-81
2023/05/19 09:36:42;;;;;;;;;;;15.00;99.90;;;;;;5064788;28;19957;-81
2023/05/19 09:39:13;;;;;;;;;;;15.10;99.90;;;;;;5079167;28;20283;-81
2023/05/19 09:41:40;;;;;;;;;;;15.20;99.90;;;;;;5081353;28;19924;-81
2023/05/19 09:44:06;;;;;;;;;;;15.30;99.90;;;;;;5081799;28;20119;-80
2023/05/19 09:46:34;;;;;;;;;;;15.40;99.90;;;;;;5080552;28;19924;-80
2023/05/19 09:49:08;;;;;;;;;;;15.40;99.90;;;;;;5063954;28;19932;-81
2023/05/19 09:51:36;;;;;;;;;;;15.60;99.90;;;;;;5060957;28;20126;-82
2023/05/19 09:54:03;;;;;;;;;;;15.70;99.90;;;;;;5081781;28;19982;-81
2023/05/19 09:56:31;;;;;;;;;;;15.70;99.90;;;;;;5080550;28;19932;-82
2023/05/19 09:58:58;;;;;;;;;;;15.70;99.90;;;;;;5078108;28;20341;-81
2023/05/19 10:01:25;;;;;;;;;;;15.70;99.90;;;;;;5075126;28;20023;-81
2023/05/19 10:03:52;;;;;;;;;;;15.80;99.90;;;;;;5080681;28;20242;-81
2023/05/19 10:06:19;;;;;;;;;;;15.80;99.90;;;;;;5080331;28;19935;-81
2023/05/19 10:08:46;;;;;;;;;;;15.90;99.90;;;;;;5080554;28;20152;-82
2023/05/19 10:11:13;;;;;;;;;;;15.90;99.90;;;;;;5079715;28;19948;-81
2023/05/19 10:13:40;;;;;;;;;;;15.80;99.90;;;;;;5079482;28;19932;-81
2023/05/19 10:16:08;;;;;;;;;;;15.60;99.90;;;;;;5078313;28;19932;-90
2023/05/19 10:18:35;;;;;;;;;;;15.60;99.90;;;;;;5072894;28;19932;-84
2023/05/19 10:21:06;;;;;;;;;;;15.50;99.90;;;;;;5058695;28;19943;-83
2023/05/19 10:23:33;;;;;;;;;;;15.60;99.90;;;;;;5060103;28;20375;-84
2023/05/19 10:26:00;;;;;;;;;;;15.70;99.90;;;;;;5078271;28;19929;-82
2023/05/19 10:28:30;;;;;;;;;;;15.60;99.90;;;;;;5078957;28;19935;-84
2023/05/19 10:30:57;;;;;;;;;;;15.50;99.90;;;;;;5061231;28;19924;-82
2023/05/19 10:33:36;;;;;;;;;;;15.60;99.90;;;;;;5072454;28;19928;-87
2023/05/19 10:36:13;;;;;;;;;;;15.70;99.90;;;;;;5076656;28;20117;-87
2023/05/19 10:38:41;;;;;;;;;;;15.90;99.90;;;;;;5061655;28;19960;-83
2023/05/19 10:41:10;;;;;;;;;;;16.00;99.90;;;;;;5078958;28;19924;-86
2023/05/19 10:43:40;;;;;;;;;;;16.10;99.90;;;;;;5064348;28;19928;-83
2023/05/19 10:46:07;;;;;;;;;;;16.20;99.90;;;;;;5083379;28;20821;-85
2023/05/19 10:48:36;;;;;;;;;;;16.30;99.90;;;;;;5066465;28;19932;-82
2023/05/19 10:51:04;;;;;;;;;;;16.30;99.90;;;;;;5065857;28;19971;-84
2023/05/19 10:53:31;;;;;;;;;;;16.50;99.90;;;;;;5081130;28;19931;-86
2023/05/19 10:56:02;;;;;;;;;;;16.40;99.90;;;;;;5074765;28;20383;-85
2023/05/19 10:58:35;;;;;;;;;;;16.40;99.90;;;;;;5066419;28;19928;-84
2023/05/19 11:01:02;;;;;;;;;;;16.50;99.90;;;;;;5067143;28;19928;-86
2023/05/19 11:03:28;;;;;;;;;;;16.80;99.90;;;;;;5065028;28;19968;-86
2023/05/19 11:06:16;;;;;;;;;;;17.10;99.90;;;;;;5070006;28;19933;-87
2023/05/19 11:08:46;;;;;;;;;;;17.20;99.90;;;;;;5088148;28;20122;-86
2023/05/19 11:11:14;;;;;;;;;;;17.50;99.90;;;;;;5059022;28;19936;-86
2023/05/19 11:13:42;;;;;;;;;;;17.40;99.90;;;;;;5064506;28;19924;-86
2023/05/19 11:16:09;;;;;;;;;;;17.50;99.90;;;;;;5057532;28;19934;-86
2023/05/19 11:18:37;;;;;;;;;;;17.70;99.90;;;;;;5079103;28;20286;-86
2023/05/19 11:21:04;;;;;;;;;;;17.90;99.90;;;;;;5064449;28;19925;-86
2023/05/19 11:23:36;;;;;;;;;;;17.90;99.90;;;;;;5058161;28;19928;-86
2023/05/19 11:26:04;;;;;;;;;;;17.80;99.90;;;;;;5060634;28;20322;-87
2023/05/19 11:28:31;;;;;;;;;;;18.00;99.90;;;;;;5080864;28;19935;-85
2023/05/19 11:30:58;;;;;;;;;;;18.20;99.90;;;;;;5074003;28;19928;-88
2023/05/19 11:33:26;;;;;;;;;;;18.20;99.90;;;;;;5073010;28;19931;-88
2023/05/19 11:35:54;;;;;;;;;;;18.50;99.80;;;;;;5071734;28;19951;-88
2023/05/19 11:38:22;;;;;;;;;;;18.90;99.90;;;;;;5066951;28;19928;-88
2023/05/19 11:40:51;;;;;;;;;;;19.30;99.60;;;;;;5070795;28;20018;-86
2023/05/19 11:43:18;;;;;;;;;;;19.10;99.90;;;;;;5067024;28;20495;-85
2023/05/19 11:45:45;;;;;;;;;;;19.40;99.20;;;;;;5066422;28;19939;-84
2023/05/19 11:48:12;;;;;;;;;;;19.60;98.50;;;;;;5067618;28;19924;-85
2023/05/19 11:50:39;;;;;;;;;;;19.90;98.10;;;;;;5068736;28;19930;-86
2023/05/19 11:53:06;;;;;;;;;;;20.00;98.60;;;;;;5066407;28;19986;-85
2023/05/19 11:55:33;;;;;;;;;;;19.80;97.60;;;;;;5066411;28;19924;-85
2023/05/19 11:58:01;;;;;;;;;;;19.50;98.20;;;;;;5069661;28;19938;-84
2023/05/19 12:00:38;;;;;;;;;;;19.40;97.50;;;;;;5059009;28;20023;-84
2023/05/19 12:03:06;;;;;;;;;;;19.30;98.10;;;;;;5058360;28;19947;-85
2023/05/19 12:05:39;;;;;;;;;;;19.30;97.50;;;;;;5060950;28;19928;-83
2023/05/19 12:08:10;;;;;;;;;;;19.20;98.10;;;;;;5077135;28;19923;-85
2023/05/19 12:10:37;;;;;;;;;;;19.20;98.80;;;;;;5068529;28;19928;-84
2023/05/19 12:13:05;;;;;;;;;;;19.20;98.60;;;;;;5062829;28;19947;-84
2023/05/19 12:15:32;;;;;;;;;;;19.50;97.80;;;;;;5063245;28;19928;-84
2023/05/19 12:17:59;;;;;;;;;;;19.60;96.90;;;;;;5063824;28;20351;-83
2023/05/19 12:20:27;;;;;;;;;;;20.20;96.90;;;;;;5060851;28;20333;-84
2023/05/19 12:22:54;;;;;;;;;;;20.60;95.10;;;;;;5061037;28;20353;-85
2023/05/19 12:25:21;;;;;;;;;;;20.80;93.70;;;;;;5061179;28;19936;-86
2023/05/19 12:27:48;;;;;;;;;;;20.80;93.80;;;;;;5069605;28;20023;-86
2023/05/19 12:30:15;;;;;;;;;;;20.70;93.00;;;;;;5060455;28;20152;-86
2023/05/19 12:32:42;;;;;;;;;;;20.70;93.20;;;;;;5062779;28;20024;-85
2023/05/19 12:35:09;;;;;;;;;;;20.80;93.20;;;;;;5063575;28;19925;-85
2023/05/19 12:37:39;;;;;;;;;;;21.00;92.60;;;;;;5048609;28;19979;-85
2023/05/19 12:40:06;;;;;;;;;;;20.90;92.10;;;;;;5067173;28;19932;-84
2023/05/19 12:42:34;;;;;;;;;;;20.80;91.90;;;;;;5083775;28;19928;-85
2023/05/19 12:45:01;;;;;;;;;;;20.70;92.80;;;;;;5065013;28;20375;-87
2023/05/19 12:47:30;;;;;;;;;;;20.60;92.90;;;;;;5065487;28;19931;-88
2023/05/19 12:50:05;;;;;;;;;;;20.60;92.80;;;;;;5049839;28;19928;-86
2023/05/19 12:52:34;;;;;;;;;;;20.70;92.90;;;;;;5068641;28;19954;-86
2023/05/19 12:55:05;;;;;;;;;;;20.60;93.50;;;;;;5067608;28;20472;-86
2023/05/19 12:57:33;;;;;;;;;;;20.50;94.10;;;;;;5065093;28;20096;-86
2023/05/19 13:00:12;;;;;;;;;;;20.60;94.10;;;;;;5072520;28;20032;-86
2023/05/19 13:02:54;;;;;;;;;;;20.70;93.50;;;;;;5061890;28;20028;-86
2023/05/19 13:05:21;;;;;;;;;;;21.10;93.80;;;;;;5081622;28;19933;-86
2023/05/19 13:07:55;;;;;;;;;;;21.40;93.60;;;;;;5068250;28;19964;-86
2023/05/19 13:10:22;;;;;;;;;;;21.80;93.60;;;;;;5074710;28;19925;-87
2023/05/19 13:12:49;;;;;;;;;;;21.80;93.60;;;;;;5070266;28;20278;-86
2023/05/19 13:15:16;;;;;;;;;;;22.30;93.00;;;;;;5064003;28;19932;-86
2023/05/19 13:17:45;;;;;;;;;;;22.40;93.30;;;;;;5064232;28;19935;-87
2023/05/19 13:20:12;;;;;;;;;;;22.90;92.60;;;;;;5066272;28;19932;-86
2023/05/19 13:22:39;;;;;;;;;;;23.00;92.50;;;;;;5084215;28;19924;-86
2023/05/19 13:25:06;;;;;;;;;;;22.60;92.00;;;;;;5062520;28;19940;-86
2023/05/19 13:27:34;;;;;;;;;;;22.40;92.70;;;;;;5059979;28;20015;-87
2023/05/19 13:30:01;;;;;;;;;;;22.20;92.50;;;;;;5049634;28;20042;-86
2023/05/19 13:32:27;;;;;;;;;;;22.40;92.50;;;;;;5085591;28;19924;-86
2023/05/19 13:34:54;;;;;;;;;;;22.70;91.70;;;;;;5066780;28;20035;-86
2023/05/19 13:37:21;;;;;;;;;;;22.80;90.80;;;;;;5050207;28;19928;-87
2023/05/19 13:39:48;;;;;;;;;;;23.20;90.50;;;;;;5050301;28;19959;-87
2023/05/19 13:42:16;;;;;;;;;;;23.40;89.90;;;;;;5052281;28;19932;-86
2023/05/19 13:44:46;;;;;;;;;;;23.40;89.70;;;;;;5071754;28;19970;-88
2023/05/19 13:47:13;;;;;;;;;;;23.20;90.00;;;;;;5084590;28;19928;-87
2023/05/19 13:49:42;;;;;;;;;;;23.50;89.60;;;;;;5058594;28;20318;-87
2023/05/19 13:52:10;;;;;;;;;;;23.70;88.60;;;;;;5062443;28;19936;-87
2023/05/19 13:54:37;;;;;;;;;;;24.20;90.40;;;;;;5060654;28;20709;-87
2023/05/19 13:57:04;;;;;;;;;;;24.20;87.00;;;;;;5044944;28;20387;-86
2023/05/19 13:59:31;;;;;;;;;;;24.80;87.80;;;;;;5062639;28;19939;-86
2023/05/19 14:01:58;;;;;;;;;;;24.20;86.30;;;;;;5065698;28;19928;-86
2023/05/19 14:04:25;;;;;;;;;;;24.10;88.30;;;;;;5065301;28;19924;-87
2023/05/19 14:06:52;;;;;;;;;;;23.50;88.60;;;;;;5066334;28;20326;-87
2023/05/19 14:09:19;;;;;;;;;;;23.40;89.20;;;;;;5064392;28;19977;-86
2023/05/19 14:11:46;;;;;;;;;;;23.40;89.40;;;;;;5064658;28;19928;-86
2023/05/19 14:14:13;;;;;;;;;;;23.40;87.10;;;;;;5061284;28;20673;-85
2023/05/19 14:16:40;;;;;;;;;;;23.60;86.90;;;;;;5059867;28;19929;-87
2023/05/19 14:19:06;;;;;;;;;;;23.70;86.50;;;;;;5062038;28;20378;-87
2023/05/19 14:21:33;;;;;;;;;;;24.30;85.70;;;;;;5064393;28;19947;-88
2023/05/19 14:24:00;;;;;;;;;;;24.90;85.50;;;;;;5064125;28;19967;-87